Latest Weather Observations for Ernabella/Pukatja

IDS60801

Issued at 12:35 pm CST Wednesday 30 July 2014 (issued every 30 minutes, with the page automatically refreshed every 10 minutes)

About weather observations | Map of weather stations | Latest weather observations for SA | Other Formats
Station Details ID: 016097 Name: PUKATJA Lat: -26.26 Lon: 132.18 Height: 703.2 m
Data from the previous 72 hours. | See also: Recent months at Ernabella/Pukatja
Date/Time
CST
Temp
°C
App
Temp
°C
Dew
Point
Rel
Hum
%
Delta-T
°C
Wind Press
QNH
hPa
Press
MSL
hPa
Rain
since 9 am
mm
Dir
 
Spd
km/h
Gust
km/h
Spd
kts
Gust
kts
30/12:30pm 21.1 16.4 -2.0 21 10.2 NE 13 22 7 12 1023.8 - 0.0
30/12:00pm 20.8 16.2 -1.1 23 9.9 NNE 13 20 7 11 1024.4 1024.0 0.0
30/11:30am 20.0 14.7 -0.6 25 9.3 NE 17 24 9 13 1024.9 - 0.0
30/11:00am 19.1 14.7 0.2 28 8.6 ENE 13 19 7 10 1025.2 - 0.0
30/10:30am 18.4 13.7 1.0 31 8.0 ENE 15 20 8 11 1025.5 - 0.0
30/10:00am 17.6 13.9 2.4 36 7.2 ENE 11 15 6 8 1025.7 - 0.0
30/09:30am 16.3 13.4 2.7 40 6.4 ENE 7 11 4 6 1025.6 - 0.0
30/09:00am 14.6 13.1 3.1 46 5.4 CALM 0 6 0 3 1025.6 1025.2 0.0
30/08:30am 10.7 8.8 3.0 59 3.5 SSW 2 7 1 4 1025.5 - 0.0
30/08:00am 7.4 5.4 2.5 71 2.1 N 2 7 1 4 1025.2 - 0.0
30/07:30am 5.5 3.8 1.6 76 1.6 CALM 0 0 0 0 1025.0 - 0.0
30/07:00am 4.6 2.7 0.7 76 1.6 CALM 0 0 0 0 1024.7 - 0.0
30/06:30am 3.7 1.6 -0.5 74 1.6 CALM 0 0 0 0 1024.4 - 0.0
30/06:00am 4.4 2.4 0.2 74 1.7 CALM 0 0 0 0 1024.3 1023.9 0.0
30/05:30am 4.2 2.2 -0.2 73 1.7 CALM 0 0 0 0 1024.2 - 0.0
30/05:00am 4.2 2.1 -1.0 69 2.0 CALM 0 0 0 0 1024.1 - 0.0
30/04:30am 4.2 2.1 -0.8 70 1.9 CALM 0 0 0 0 1024.2 - 0.0
30/04:00am 5.0 2.9 -0.8 66 2.3 CALM 0 6 0 3 1024.3 - 0.0
30/03:30am 6.3 3.5 -0.2 63 2.6 SW 4 7 2 4 1024.3 - 0.0
30/03:00am 6.2 3.4 -0.3 63 2.6 NNE 4 7 2 4 1024.3 1023.9 0.0
30/02:30am 6.2 3.0 -0.7 61 2.7 NNE 6 7 3 4 1024.7 - 0.0
30/02:00am 6.6 4.5 -0.8 59 2.9 CALM 0 0 0 0 1025.0 - 0.0
30/01:30am 7.5 4.7 -0.7 56 3.3 WNW 4 6 2 3 1025.1 - 0.0
30/01:00am 8.7 6.6 -0.6 52 3.8 CALM 0 0 0 0 1025.2 - 0.0
30/12:30am 8.6 6.5 -0.7 52 3.8 CALM 0 0 0 0 1025.2 - 0.0
30/12:00am 10.6 8.1 -0.8 45 4.7 W 2 7 1 4 1025.2 1024.8 0.0
 
Date/Time
CST
Temp
°C
App
Temp
°C
Dew
Point
Rel
Hum
%
Delta-T
°C
Wind Press
QNH
hPa
Press
MSL
hPa
Rain
since 9 am
mm
Dir
 
Spd
km/h
Gust
km/h
Spd
kts
Gust
kts
29/11:30pm 11.1 7.9 -0.4 45 4.8 W 6 9 3 5 1025.3 - 0.0
29/11:00pm 11.1 8.3 -0.7 44 4.9 SW 4 6 2 3 1025.2 - 0.0
29/10:30pm 11.5 8.2 -0.9 42 5.2 NNE 6 7 3 4 1025.3 - 0.0
29/10:00pm 13.9 9.8 -0.5 37 6.2 SW 11 15 6 8 1025.2 - 0.0
29/09:30pm 16.3 12.1 -0.8 31 7.5 S 11 15 6 8 1025.2 - 0.0
29/09:00pm 17.4 12.1 -0.3 30 7.9 SSE 17 20 9 11 1024.9 1024.5 0.0
29/08:30pm 17.7 12.4 -0.5 29 8.1 SSE 17 20 9 11 1024.4 - 0.0
29/08:00pm 17.8 13.2 -1.4 27 8.4 S 13 19 7 10 1024.3 - 0.0
29/07:30pm 18.8 13.7 -1.6 25 9.0 S 15 20 8 11 1023.8 - 0.0
29/07:00pm 18.8 14.1 -1.6 25 9.0 S 13 17 7 9 1023.4 - 0.0
29/06:30pm 19.5 14.4 -2.2 23 9.5 SSW 15 20 8 11 1023.1 - 0.0
29/06:00pm 20.6 15.5 -1.8 22 9.9 SW 15 20 8 11 1022.7 1022.3 0.0
29/05:30pm 21.8 16.6 -2.8 19 10.8 SW 15 22 8 12 1022.4 - 0.0
29/05:00pm 22.6 17.0 -2.9 18 11.3 SSW 17 22 9 12 1022.3 - 0.0
29/04:30pm 23.2 18.3 -3.2 17 11.7 SSW 13 20 7 11 1022.3 - 0.0
29/04:00pm 23.1 18.2 -3.3 17 11.7 SW 13 22 7 12 1022.1 - 0.0
29/03:30pm 23.2 18.7 -3.2 17 11.7 SSW 11 19 6 10 1022.1 - 0.0
29/03:00pm 23.0 17.0 -3.3 17 11.6 WSW 19 24 10 13 1022.1 1021.7 0.0
29/02:30pm 22.9 18.4 -3.4 17 11.6 S 11 17 6 9 1022.3 - 0.0
29/02:00pm 22.8 17.9 -3.5 17 11.5 W 13 28 7 15 1022.6 - 0.0
29/01:30pm 22.8 19.2 -3.5 17 11.5 WNW 6 9 3 5 1023.2 - 0.0
29/01:00pm 22.2 17.6 -4.0 17 11.3 ESE 11 19 6 10 1023.8 - 0.0
29/12:30pm 21.7 17.2 -3.6 18 11.0 E 11 19 6 10 1024.6 - 0.0
29/12:00pm 21.1 16.5 -4.1 18 10.7 ENE 11 17 6 9 1024.8 1024.4 0.0
29/11:30am 21.0 16.4 -4.2 18 10.7 ENE 11 19 6 10 1025.4 - 0.0
29/11:00am 20.1 15.5 -4.2 19 10.3 E 11 17 6 9 1025.7 - 0.0
29/10:30am 18.7 15.2 -2.8 23 9.2 W 6 9 3 5 1025.7 - 0.0
29/10:00am 17.1 13.0 -3.1 25 8.5 WNW 9 13 5 7 1025.6 - 0.0
29/09:30am 16.2 12.1 -2.8 27 8.0 W 9 13 5 7 1025.5 - 0.0
29/09:00am 13.7 10.3 -2.3 33 6.6 W 6 7 3 4 1025.2 1024.8 0.0
29/08:30am 11.4 8.3 -2.4 38 5.6 W 4 7 2 4 1024.9 - 0.0
29/08:00am 7.6 4.6 -2.1 50 3.8 WSW 4 9 2 5 1024.7 - 0.0
29/07:30am 6.1 2.4 -2.7 53 3.3 SW 7 11 4 6 1024.4 - 0.0
29/07:00am 7.0 3.5 -2.7 50 3.7 WSW 6 9 3 5 1024.2 - 0.0
29/06:30am 5.2 1.6 -2.1 59 2.8 SSW 7 15 4 8 1024.0 - 0.0
29/06:00am 4.1 1.0 -2.5 62 2.4 S 4 7 2 4 1023.7 1023.3 0.0
29/05:30am 4.8 1.2 -2.3 60 2.7 SW 7 7 4 4 1023.6 - 0.0
29/05:00am 5.0 2.7 -2.3 59 2.7 CALM 0 0 0 0 1023.4 - 0.0
29/04:30am 8.3 4.3 -2.6 46 4.2 W 9 11 5 6 1023.4 - 0.0
29/04:00am 7.4 3.5 -1.8 52 3.6 WSW 9 11 5 6 1023.4 - 0.0
29/03:30am 7.1 3.7 -2.1 52 3.6 SW 6 9 3 5 1023.4 - 0.0
29/03:00am 7.2 4.9 -2.0 52 3.6 CALM 0 0 0 0 1023.5 1023.1 0.0
29/02:30am 8.6 6.3 -2.1 47 4.2 CALM 0 0 0 0 1023.4 - 0.0
29/02:00am 9.1 6.4 -2.5 44 4.6 NE 2 6 1 3 1023.6 - 0.0
29/01:30am 9.6 6.1 -2.7 42 4.8 ENE 6 9 3 5 1023.7 - 0.0
29/01:00am 12.9 10.2 -2.6 34 6.3 WNW 2 6 1 3 1023.6 - 0.0
29/12:30am 13.1 9.7 -2.4 34 6.4 WSW 6 15 3 8 1023.7 - 0.0
29/12:00am 12.9 9.5 -2.2 35 6.2 WNW 6 9 3 5 1023.5 1023.1 0.0
 
Date/Time
CST
Temp
°C
App
Temp
°C
Dew
Point
Rel
Hum
%
Delta-T
°C
Wind Press
QNH
hPa
Press
MSL
hPa
Rain
since 9 am
mm
Dir
 
Spd
km/h
Gust
km/h
Spd
kts
Gust
kts
28/11:30pm 11.1 7.1 -2.0 40 5.3 SW 9 13 5 7 1023.3 - 0.0
28/11:00pm 11.3 8.3 -1.8 40 5.3 W 4 11 2 6 1023.3 - 0.0
28/10:30pm 12.0 9.0 -1.9 38 5.7 W 4 7 2 4 1023.1 - 0.0
28/10:00pm 12.4 8.9 -1.5 38 5.8 W 7 9 4 5 1022.9 - 0.0
28/09:30pm 13.9 9.9 -2.1 33 6.7 W 9 11 5 6 1022.7 - 0.0
28/09:00pm 14.5 10.5 -2.0 32 6.9 WSW 9 11 5 6 1022.5 1022.1 0.0
28/08:30pm 14.5 10.9 -2.0 32 6.9 W 7 11 4 6 1022.3 - 0.0
28/08:00pm 15.4 12.0 -2.1 30 7.4 W 6 9 3 5 1022.1 - 0.0
28/07:30pm 19.4 14.6 -2.2 23 9.4 S 13 17 7 9 1021.8 - 0.0
28/07:00pm 19.8 14.6 -2.5 22 9.7 SSW 15 19 8 10 1021.4 - 0.0
28/06:30pm 20.0 14.5 -2.3 22 9.8 SW 17 20 9 11 1021.1 - 0.0
28/06:00pm 21.3 15.7 -2.5 20 10.5 SW 17 20 9 11 1020.8 1020.4 0.0
28/05:30pm 22.7 16.5 -2.8 18 11.3 SSW 20 26 11 14 1020.6 - 0.0
28/05:00pm 23.6 18.4 -2.8 17 11.8 S 15 22 8 12 1020.4 - 0.0
28/04:30pm 23.6 17.4 -2.8 17 11.8 SW 20 28 11 15 1020.3 - 0.0
28/04:00pm 23.9 17.4 -2.6 17 11.9 SSW 22 35 12 19 1020.2 - 0.0
28/03:30pm 24.4 18.3 -2.2 17 12.1 WSW 20 26 11 14 1020.3 - 0.0
28/03:00pm 24.7 18.7 -2.8 16 12.4 SW 19 26 10 14 1020.4 1019.9 0.0
28/02:30pm 24.8 19.6 -2.7 16 12.5 S 15 22 8 12 1020.6 - 0.0
28/02:00pm 24.4 18.3 -2.2 17 12.1 SW 20 30 11 16 1020.9 - 0.0
28/01:30pm 24.6 20.3 -2.0 17 12.2 NW 11 15 6 8 1021.4 - 0.0
28/01:00pm 23.9 18.3 -2.6 17 11.9 WSW 17 28 9 15 1022.1 - 0.0
28/12:30pm 23.4 18.2 -3.0 17 11.8 W 15 22 8 12 1022.6 - 0.0
28/12:00pm 23.5 18.3 -2.9 17 11.7 W 15 24 8 13 1023.2 1022.7 0.0
28/11:30am 22.6 18.1 -2.9 18 11.3 WSW 11 22 6 12 1023.6 - 0.0
28/11:00am 21.8 17.2 -4.3 17 11.2 W 11 15 6 8 1023.9 - 0.0
28/10:30am 21.0 17.3 -2.8 20 10.4 W 7 11 4 6 1024.1 - 0.0
28/10:00am 19.5 16.4 0.0 27 8.9 WNW 6 7 3 4 1024.3 - 0.0
28/09:30am 16.5 13.8 0.6 34 7.2 WSW 4 6 2 3 1024.1 - 0.0
28/09:00am 14.5 12.7 1.4 41 5.9 CALM 0 0 0 0 1024.1 1023.7 0.0
28/08:30am 10.9 9.1 1.4 52 4.2 CALM 0 2 0 1 1024.1 - 0.0
28/08:00am 7.7 5.9 1.1 63 2.8 CALM 0 9 0 5 1023.9 - 0.0
28/07:30am 5.1 3.1 0.1 70 2.0 CALM 0 0 0 0 1023.5 - 0.0
28/07:00am 4.6 1.3 -0.2 71 1.9 NE 7 7 4 4 1023.4 - 0.0
28/06:30am 5.8 2.5 0.0 66 2.3 ESE 7 7 4 4 1023.2 - 0.0
28/06:00am 6.8 3.5 0.0 62 2.8 ENE 7 9 4 5 1023.1 1022.6 0.0
28/05:30am 6.9 3.8 -0.1 61 2.8 E 6 7 3 4 1022.9 - 0.0
28/05:00am 8.6 6.7 0.3 56 3.5 CALM 0 0 0 0 1022.8 - 0.0
28/04:30am 6.9 3.7 0.6 64 2.6 W 7 9 4 5 1022.6 - 0.0
28/04:00am 7.7 4.1 0.4 60 3.0 WSW 9 13 5 7 1022.6 - 0.0
28/03:30am 9.2 5.9 0.1 53 3.8 W 7 9 4 5 1022.7 - 0.0
28/03:00am 9.1 5.8 0.3 54 3.7 NW 7 9 4 5 1022.7 1022.3 0.0
28/02:30am 7.6 4.4 0.6 61 2.9 WNW 7 11 4 6 1022.7 - 0.0
28/02:00am 9.9 7.7 0.8 53 3.9 SE 2 6 1 3 1022.7 - 0.0
28/01:30am 7.9 4.7 0.9 61 2.9 N 7 9 4 5 1022.5 - 0.0
28/01:00am 7.9 4.9 1.1 62 2.9 NNE 6 7 3 4 1022.7 - 0.0
28/12:30am 7.5 4.5 0.7 62 2.8 ESE 6 7 3 4 1022.6 - 0.0
28/12:00am 8.6 6.8 1.1 59 3.2 CALM 0 0 0 0 1022.9 1022.5 0.0
 
Date/Time
CST
Temp
°C
App
Temp
°C
Dew
Point
Rel
Hum
%
Delta-T
°C
Wind Press
QNH
hPa
Press
MSL
hPa
Rain
since 9 am
mm
Dir
 
Spd
km/h
Gust
km/h
Spd
kts
Gust
kts
27/11:30pm 8.9 5.8 0.4 55 3.6 NE 6 7 3 4 1023.1 - 0.0
27/11:00pm 9.3 7.4 0.7 55 3.6 CALM 0 0 0 0 1023.2 - 0.0
27/10:30pm 10.0 7.4 0.9 53 3.9 NNE 4 7 2 4 1023.4 - 0.0
27/10:00pm 12.1 9.0 0.2 44 5.1 E 6 7 3 4 1023.5 - 0.0
27/09:30pm 13.8 10.7 0.1 39 6.0 ENE 6 6 3 3 1023.6 - 0.0
27/09:00pm 12.2 8.9 0.3 44 5.1 ENE 7 9 4 5 1023.6 1023.2 0.0
27/08:30pm 12.6 10.8 1.0 45 5.1 CALM 0 0 0 0 1023.6 - 0.0
27/08:00pm 14.2 12.2 0.1 38 6.2 CALM 0 0 0 0 1023.6 - 0.0
27/07:30pm 15.0 11.7 0.4 37 6.5 ENE 7 9 4 5 1023.4 - 0.0
27/07:00pm 15.6 13.6 0.2 35 6.8 CALM 0 6 0 3 1023.1 - 0.0
27/06:30pm 17.9 14.8 0.1 30 8.0 NNW 6 7 3 4 1022.7 - 0.0
27/06:00pm 21.3 18.1 0.5 25 9.7 NW 7 9 4 5 1022.4 1022.0 0.0
27/05:30pm 22.5 17.9 -0.9 21 10.8 WNW 13 17 7 9 1022.2 - 0.0
27/05:00pm 23.0 18.4 -1.1 20 11.1 W 13 17 7 9 1022.2 - 0.0
27/04:30pm 23.4 18.2 -0.1 21 11.1 WNW 17 22 9 12 1022.2 - 0.0
27/04:00pm 23.0 18.3 0.8 23 10.6 NW 15 22 8 12 1022.2 - 0.0
27/03:30pm 23.0 18.7 0.8 23 10.6 W 13 19 7 10 1022.4 - 0.0
27/03:00pm 22.9 17.8 0.7 23 10.5 NW 17 26 9 14 1022.6 1022.2 0.0
27/02:30pm 22.9 17.9 1.3 24 10.4 W 17 28 9 15 1022.8 - 0.0
27/02:00pm 22.5 17.1 1.5 25 10.1 WNW 19 28 10 15 1023.3 - 0.0
27/01:30pm 22.4 17.4 1.4 25 10.1 WNW 17 24 9 13 1023.8 - 0.0
27/01:00pm 22.4 19.0 2.0 26 9.9 NNW 9 19 5 10 1024.3 - 0.0

Other Formats:

Comma delimited format used in spreadsheet applications
http://www.bom.gov.au/fwo/IDS60801/IDS60801.94474.axf

JavaScript Object Notation format (JSON) in row-major order
http://www.bom.gov.au/fwo/IDS60801/IDS60801.94474.json